sensor_id;sensor_type;location;lat;lon;timestamp;P1;durP1;ratioP1;P2;durP2;ratioP2
12171;SDS011;6149;52.418;13.668;2023-09-18T00:02:08;14.00;;;12.80;;
12171;SDS011;6149;52.418;13.668;2023-09-18T00:04:36;14.57;;;13.27;;
12171;SDS011;6149;52.418;13.668;2023-09-18T00:07:11;14.30;;;13.00;;
12171;SDS011;6149;52.418;13.668;2023-09-18T00:09:38;14.67;;;13.37;;
12171;SDS011;6149;52.418;13.668;2023-09-18T00:12:09;12.83;;;11.73;;
12171;SDS011;6149;52.418;13.668;2023-09-18T00:14:37;12.77;;;11.67;;
12171;SDS011;6149;52.418;13.668;2023-09-18T00:17:05;13.83;;;12.53;;
12171;SDS011;6149;52.418;13.668;2023-09-18T00:19:37;14.63;;;13.23;;
12171;SDS011;6149;52.418;13.668;2023-09-18T00:22:06;15.03;;;13.63;;
12171;SDS011;6149;52.418;13.668;2023-09-18T00:24:38;13.70;;;12.60;;
12171;SDS011;6149;52.418;13.668;2023-09-18T00:27:06;14.77;;;13.37;;
12171;SDS011;6149;52.418;13.668;2023-09-18T00:29:33;12.80;;;11.70;;
12171;SDS011;6149;52.418;13.668;2023-09-18T00:32:04;14.97;;;13.57;;
12171;SDS011;6149;52.418;13.668;2023-09-18T00:34:33;13.93;;;12.63;;
12171;SDS011;6149;52.418;13.668;2023-09-18T00:37:01;14.27;;;12.97;;
12171;SDS011;6149;52.418;13.668;2023-09-18T00:39:41;13.63;;;12.43;;
12171;SDS011;6149;52.418;13.668;2023-09-18T00:42:09;14.23;;;12.83;;
12171;SDS011;6149;52.418;13.668;2023-09-18T00:44:39;14.37;;;13.17;;
12171;SDS011;6149;52.418;13.668;2023-09-18T00:47:07;15.23;;;13.73;;
12171;SDS011;6149;52.418;13.668;2023-09-18T00:49:36;13.43;;;12.33;;
12171;SDS011;6149;52.418;13.668;2023-09-18T00:52:08;13.37;;;12.27;;
12171;SDS011;6149;52.418;13.668;2023-09-18T00:54:39;15.07;;;13.77;;
12171;SDS011;6149;52.418;13.668;2023-09-18T00:57:09;13.00;;;11.80;;
12171;SDS011;6149;52.418;13.668;2023-09-18T00:59:37;13.13;;;12.03;;
12171;SDS011;6149;52.418;13.668;2023-09-18T01:02:07;13.97;;;12.83;;
12171;SDS011;6149;52.418;13.668;2023-09-18T01:04:36;13.33;;;12.23;;
12171;SDS011;6149;52.418;13.668;2023-09-18T01:07:04;14.07;;;12.80;;
12171;SDS011;6149;52.418;13.668;2023-09-18T01:09:35;14.83;;;13.43;;
12171;SDS011;6149;52.418;13.668;2023-09-18T01:12:08;14.13;;;12.93;;
12171;SDS011;6149;52.418;13.668;2023-09-18T01:14:48;14.47;;;13.20;;
12171;SDS011;6149;52.418;13.668;2023-09-18T01:17:24;14.50;;;13.10;;
12171;SDS011;6149;52.418;13.668;2023-09-18T01:19:52;15.00;;;13.53;;
12171;SDS011;6149;52.418;13.668;2023-09-18T01:22:19;13.30;;;12.20;;
12171;SDS011;6149;52.418;13.668;2023-09-18T01:24:49;13.70;;;12.60;;
12171;SDS011;6149;52.418;13.668;2023-09-18T01:27:17;13.13;;;11.93;;
12171;SDS011;6149;52.418;13.668;2023-09-18T01:29:52;13.40;;;12.20;;
12171;SDS011;6149;52.418;13.668;2023-09-18T01:32:21;13.90;;;12.60;;
12171;SDS011;6149;52.418;13.668;2023-09-18T01:34:54;15.00;;;13.60;;
12171;SDS011;6149;52.418;13.668;2023-09-18T01:37:25;13.03;;;11.93;;
12171;SDS011;6149;52.418;13.668;2023-09-18T01:39:58;13.90;;;12.70;;
12171;SDS011;6149;52.418;13.668;2023-09-18T01:42:33;13.43;;;12.13;;
12171;SDS011;6149;52.418;13.668;2023-09-18T01:45:09;14.30;;;13.00;;
12171;SDS011;6149;52.418;13.668;2023-09-18T01:47:39;13.07;;;11.87;;
12171;SDS011;6149;52.418;13.668;2023-09-18T01:50:07;12.40;;;11.30;;
12171;SDS011;6149;52.418;13.668;2023-09-18T01:52:35;13.87;;;12.60;;
12171;SDS011;6149;52.418;13.668;2023-09-18T01:55:16;14.13;;;12.70;;
12171;SDS011;6149;52.418;13.668;2023-09-18T01:57:44;13.40;;;12.20;;
12171;SDS011;6149;52.418;13.668;2023-09-18T02:00:12;13.73;;;12.43;;
12171;SDS011;6149;52.418;13.668;2023-09-18T02:02:44;13.30;;;12.10;;
12171;SDS011;6149;52.418;13.668;2023-09-18T02:05:12;12.73;;;11.63;;
12171;SDS011;6149;52.418;13.668;2023-09-18T02:07:39;14.23;;;12.70;;
12171;SDS011;6149;52.418;13.668;2023-09-18T02:10:08;12.00;;;11.03;;
12171;SDS011;6149;52.418;13.668;2023-09-18T02:15:26;13.03;;;11.93;;
12171;SDS011;6149;52.418;13.668;2023-09-18T02:17:58;13.80;;;12.57;;
12171;SDS011;6149;52.418;13.668;2023-09-18T02:20:27;13.47;;;12.30;;
12171;SDS011;6149;52.418;13.668;2023-09-18T02:22:57;13.40;;;12.20;;
12171;SDS011;6149;52.418;13.668;2023-09-18T02:25:25;13.20;;;12.00;;
12171;SDS011;6149;52.418;13.668;2023-09-18T02:27:52;13.40;;;12.13;;
12171;SDS011;6149;52.418;13.668;2023-09-18T02:30:22;13.50;;;12.30;;
12171;SDS011;6149;52.418;13.668;2023-09-18T02:32:50;13.23;;;12.03;;
12171;SDS011;6149;52.418;13.668;2023-09-18T02:35:18;12.60;;;11.50;;
12171;SDS011;6149;52.418;13.668;2023-09-18T02:37:46;12.77;;;11.67;;
12171;SDS011;6149;52.418;13.668;2023-09-18T02:40:14;13.10;;;11.80;;
12171;SDS011;6149;52.418;13.668;2023-09-18T02:42:42;12.53;;;11.43;;
12171;SDS011;6149;52.418;13.668;2023-09-18T02:45:11;12.67;;;11.57;;
12171;SDS011;6149;52.418;13.668;2023-09-18T02:47:38;13.73;;;12.43;;
12171;SDS011;6149;52.418;13.668;2023-09-18T02:50:07;13.13;;;12.00;;
12171;SDS011;6149;52.418;13.668;2023-09-18T02:52:37;13.67;;;12.43;;
12171;SDS011;6149;52.418;13.668;2023-09-18T02:55:06;12.57;;;11.37;;
12171;SDS011;6149;52.418;13.668;2023-09-18T02:57:37;12.47;;;11.37;;
12171;SDS011;6149;52.418;13.668;2023-09-18T03:00:05;12.87;;;11.77;;
12171;SDS011;6149;52.418;13.668;2023-09-18T03:02:35;13.13;;;11.93;;
12171;SDS011;6149;52.418;13.668;2023-09-18T03:05:04;14.67;;;12.30;;
12171;SDS011;6149;52.418;13.668;2023-09-18T03:07:33;14.97;;;11.70;;
12171;SDS011;6149;52.418;13.668;2023-09-18T03:10:04;13.10;;;11.90;;
12171;SDS011;6149;52.418;13.668;2023-09-18T03:12:38;17.70;;;13.03;;
12171;SDS011;6149;52.418;13.668;2023-09-18T03:15:09;12.93;;;11.57;;
12171;SDS011;6149;52.418;13.668;2023-09-18T03:17:37;16.17;;;13.50;;
12171;SDS011;6149;52.418;13.668;2023-09-18T03:20:08;13.63;;;12.23;;
12171;SDS011;6149;52.418;13.668;2023-09-18T03:22:36;12.27;;;11.07;;
12171;SDS011;6149;52.418;13.668;2023-09-18T03:25:07;14.80;;;12.43;;
12171;SDS011;6149;52.418;13.668;2023-09-18T03:27:36;13.23;;;11.93;;
12171;SDS011;6149;52.418;13.668;2023-09-18T03:30:03;13.20;;;11.90;;
12171;SDS011;6149;52.418;13.668;2023-09-18T03:32:41;12.90;;;11.80;;
12171;SDS011;6149;52.418;13.668;2023-09-18T03:35:09;12.03;;;10.93;;
12171;SDS011;6149;52.418;13.668;2023-09-18T03:37:43;12.73;;;11.43;;
12171;SDS011;6149;52.418;13.668;2023-09-18T03:40:13;13.17;;;12.07;;
12171;SDS011;6149;52.418;13.668;2023-09-18T03:42:41;13.27;;;12.00;;
12171;SDS011;6149;52.418;13.668;2023-09-18T03:45:08;12.83;;;11.53;;
12171;SDS011;6149;52.418;13.668;2023-09-18T03:47:45;13.03;;;11.83;;
12171;SDS011;6149;52.418;13.668;2023-09-18T03:50:11;13.20;;;11.93;;
12171;SDS011;6149;52.418;13.668;2023-09-18T03:52:39;13.17;;;11.97;;
12171;SDS011;6149;52.418;13.668;2023-09-18T03:55:08;12.43;;;11.43;;
12171;SDS011;6149;52.418;13.668;2023-09-18T03:57:36;14.70;;;13.40;;
12171;SDS011;6149;52.418;13.668;2023-09-18T04:00:07;13.27;;;12.03;;
12171;SDS011;6149;52.418;13.668;2023-09-18T04:02:39;13.60;;;12.33;;
12171;SDS011;6149;52.418;13.668;2023-09-18T04:05:08;13.10;;;11.80;;
12171;SDS011;6149;52.418;13.668;2023-09-18T04:07:34;12.40;;;11.40;;
12171;SDS011;6149;52.418;13.668;2023-09-18T04:10:05;12.23;;;11.23;;
12171;SDS011;6149;52.418;13.668;2023-09-18T04:12:36;12.23;;;11.20;;
12171;SDS011;6149;52.418;13.668;2023-09-18T04:15:05;11.30;;;10.30;;
12171;SDS011;6149;52.418;13.668;2023-09-18T04:17:38;11.33;;;10.43;;
12171;SDS011;6149;52.418;13.668;2023-09-18T04:20:09;12.63;;;11.53;;
12171;SDS011;6149;52.418;13.668;2023-09-18T04:22:42;12.27;;;11.07;;
12171;SDS011;6149;52.418;13.668;2023-09-18T04:25:11;12.50;;;11.33;;
12171;SDS011;6149;52.418;13.668;2023-09-18T04:27:39;12.60;;;11.40;;
12171;SDS011;6149;52.418;13.668;2023-09-18T04:30:10;11.43;;;10.47;;
12171;SDS011;6149;52.418;13.668;2023-09-18T04:32:40;12.47;;;11.37;;
12171;SDS011;6149;52.418;13.668;2023-09-18T04:35:08;12.10;;;11.00;;
12171;SDS011;6149;52.418;13.668;2023-09-18T04:37:37;12.07;;;10.97;;
12171;SDS011;6149;52.418;13.668;2023-09-18T04:40:05;13.53;;;12.23;;
12171;SDS011;6149;52.418;13.668;2023-09-18T04:42:36;12.07;;;10.97;;
12171;SDS011;6149;52.418;13.668;2023-09-18T04:45:06;11.37;;;10.37;;
12171;SDS011;6149;52.418;13.668;2023-09-18T04:47:36;12.80;;;11.60;;
12171;SDS011;6149;52.418;13.668;2023-09-18T04:50:09;13.10;;;11.80;;
12171;SDS011;6149;52.418;13.668;2023-09-18T04:52:37;13.17;;;11.97;;
12171;SDS011;6149;52.418;13.668;2023-09-18T04:55:09;14.47;;;13.03;;
12171;SDS011;6149;52.418;13.668;2023-09-18T04:57:38;13.87;;;12.67;;
12171;SDS011;6149;52.418;13.668;2023-09-18T05:00:06;14.60;;;13.30;;
12171;SDS011;6149;52.418;13.668;2023-09-18T05:02:40;13.37;;;12.17;;
12171;SDS011;6149;52.418;13.668;2023-09-18T05:05:22;13.50;;;12.13;;
12171;SDS011;6149;52.418;13.668;2023-09-18T05:07:49;13.33;;;12.13;;
12171;SDS011;6149;52.418;13.668;2023-09-18T05:10:17;13.07;;;11.83;;
12171;SDS011;6149;52.418;13.668;2023-09-18T05:12:43;13.10;;;11.90;;
12171;SDS011;6149;52.418;13.668;2023-09-18T05:15:12;14.00;;;12.67;;
12171;SDS011;6149;52.418;13.668;2023-09-18T05:17:42;14.60;;;13.27;;
12171;SDS011;6149;52.418;13.668;2023-09-18T05:20:13;14.03;;;12.77;;
12171;SDS011;6149;52.418;13.668;2023-09-18T05:22:44;15.20;;;13.40;;
12171;SDS011;6149;52.418;13.668;2023-09-18T05:25:13;14.13;;;12.70;;
12171;SDS011;6149;52.418;13.668;2023-09-18T05:27:42;14.27;;;12.80;;
12171;SDS011;6149;52.418;13.668;2023-09-18T05:30:14;15.03;;;13.60;;
12171;SDS011;6149;52.418;13.668;2023-09-18T05:32:47;15.03;;;13.53;;
12171;SDS011;6149;52.418;13.668;2023-09-18T05:35:15;13.77;;;12.20;;
12171;SDS011;6149;52.418;13.668;2023-09-18T05:37:44;15.00;;;13.57;;
12171;SDS011;6149;52.418;13.668;2023-09-18T05:40:13;14.43;;;13.13;;
12171;SDS011;6149;52.418;13.668;2023-09-18T05:42:41;14.17;;;12.87;;
12171;SDS011;6149;52.418;13.668;2023-09-18T05:45:10;13.87;;;12.67;;
12171;SDS011;6149;52.418;13.668;2023-09-18T05:47:40;13.70;;;12.40;;
12171;SDS011;6149;52.418;13.668;2023-09-18T05:50:09;14.13;;;12.83;;
12171;SDS011;6149;52.418;13.668;2023-09-18T05:52:41;13.10;;;12.00;;
12171;SDS011;6149;52.418;13.668;2023-09-18T05:55:10;13.30;;;12.10;;
12171;SDS011;6149;52.418;13.668;2023-09-18T05:57:38;13.20;;;11.90;;
12171;SDS011;6149;52.418;13.668;2023-09-18T06:00:07;13.33;;;12.03;;
12171;SDS011;6149;52.418;13.668;2023-09-18T06:02:39;12.83;;;11.73;;
12171;SDS011;6149;52.418;13.668;2023-09-18T06:05:08;12.03;;;10.90;;
12171;SDS011;6149;52.418;13.668;2023-09-18T06:07:36;12.87;;;11.67;;
12171;SDS011;6149;52.418;13.668;2023-09-18T06:10:09;10.97;;;10.07;;
12171;SDS011;6149;52.418;13.668;2023-09-18T06:12:37;11.07;;;10.17;;
12171;SDS011;6149;52.418;13.668;2023-09-18T06:15:07;11.27;;;10.37;;
12171;SDS011;6149;52.418;13.668;2023-09-18T06:17:39;11.80;;;10.37;;
12171;SDS011;6149;52.418;13.668;2023-09-18T06:20:10;11.57;;;10.50;;
12171;SDS011;6149;52.418;13.668;2023-09-18T06:22:40;11.70;;;10.70;;
12171;SDS011;6149;52.418;13.668;2023-09-18T06:25:09;10.83;;;9.90;;
12171;SDS011;6149;52.418;13.668;2023-09-18T06:27:37;10.27;;;9.37;;
12171;SDS011;6149;52.418;13.668;2023-09-18T06:30:07;10.07;;;9.00;;
12171;SDS011;6149;52.418;13.668;2023-09-18T06:32:35;10.57;;;9.67;;
12171;SDS011;6149;52.418;13.668;2023-09-18T06:35:05;9.80;;;8.90;;
12171;SDS011;6149;52.418;13.668;2023-09-18T06:37:37;9.93;;;9.13;;
12171;SDS011;6149;52.418;13.668;2023-09-18T06:40:08;9.80;;;8.90;;
12171;SDS011;6149;52.418;13.668;2023-09-18T06:42:39;9.80;;;9.00;;
12171;SDS011;6149;52.418;13.668;2023-09-18T06:45:07;9.97;;;9.03;;
12171;SDS011;6149;52.418;13.668;2023-09-18T06:47:35;9.53;;;8.70;;
12171;SDS011;6149;52.418;13.668;2023-09-18T06:50:06;9.23;;;8.43;;
12171;SDS011;6149;52.418;13.668;2023-09-18T06:52:38;9.73;;;8.67;;
12171;SDS011;6149;52.418;13.668;2023-09-18T06:55:08;8.60;;;7.77;;
12171;SDS011;6149;52.418;13.668;2023-09-18T06:57:44;9.77;;;8.50;;
12171;SDS011;6149;52.418;13.668;2023-09-18T07:00:14;9.43;;;8.60;;
12171;SDS011;6149;52.418;13.668;2023-09-18T07:02:47;9.17;;;8.37;;
12171;SDS011;6149;52.418;13.668;2023-09-18T07:05:14;8.83;;;8.13;;
12171;SDS011;6149;52.418;13.668;2023-09-18T07:07:42;9.30;;;8.50;;
12171;SDS011;6149;52.418;13.668;2023-09-18T07:10:11;8.83;;;8.00;;
12171;SDS011;6149;52.418;13.668;2023-09-18T07:12:47;9.17;;;8.37;;
12171;SDS011;6149;52.418;13.668;2023-09-18T07:15:15;9.43;;;8.53;;
12171;SDS011;6149;52.418;13.668;2023-09-18T07:17:43;10.37;;;8.67;;
12171;SDS011;6149;52.418;13.668;2023-09-18T07:20:11;9.13;;;8.23;;
12171;SDS011;6149;52.418;13.668;2023-09-18T07:22:46;8.67;;;7.93;;
12171;SDS011;6149;52.418;13.668;2023-09-18T07:25:16;8.43;;;7.63;;
12171;SDS011;6149;52.418;13.668;2023-09-18T07:27:43;8.60;;;7.70;;
12171;SDS011;6149;52.418;13.668;2023-09-18T07:30:11;8.77;;;7.97;;
12171;SDS011;6149;52.418;13.668;2023-09-18T07:32:41;7.90;;;7.20;;
12171;SDS011;6149;52.418;13.668;2023-09-18T07:35:08;7.90;;;7.10;;
12171;SDS011;6149;52.418;13.668;2023-09-18T07:37:40;7.93;;;6.50;;
12171;SDS011;6149;52.418;13.668;2023-09-18T07:40:10;7.43;;;6.83;;
12171;SDS011;6149;52.418;13.668;2023-09-18T07:42:47;7.60;;;6.73;;
12171;SDS011;6149;52.418;13.668;2023-09-18T07:45:15;7.43;;;6.73;;
12171;SDS011;6149;52.418;13.668;2023-09-18T07:47:42;7.20;;;6.47;;
12171;SDS011;6149;52.418;13.668;2023-09-18T07:50:10;6.87;;;5.87;;
12171;SDS011;6149;52.418;13.668;2023-09-18T07:52:38;7.43;;;6.67;;
12171;SDS011;6149;52.418;13.668;2023-09-18T07:55:05;7.03;;;6.43;;
12171;SDS011;6149;52.418;13.668;2023-09-18T07:57:35;6.33;;;5.73;;
12171;SDS011;6149;52.418;13.668;2023-09-18T08:03:02;6.50;;;6.00;;
12171;SDS011;6149;52.418;13.668;2023-09-18T08:05:31;6.87;;;6.27;;
12171;SDS011;6149;52.418;13.668;2023-09-18T08:07:59;6.67;;;5.97;;
12171;SDS011;6149;52.418;13.668;2023-09-18T08:10:32;6.33;;;5.73;;
12171;SDS011;6149;52.418;13.668;2023-09-18T08:13:07;6.40;;;5.80;;
12171;SDS011;6149;52.418;13.668;2023-09-18T08:15:35;6.37;;;5.77;;
12171;SDS011;6149;52.418;13.668;2023-09-18T08:18:08;7.23;;;6.10;;
12171;SDS011;6149;52.418;13.668;2023-09-18T08:20:36;7.33;;;6.00;;
12171;SDS011;6149;52.418;13.668;2023-09-18T08:23:09;6.93;;;5.83;;
12171;SDS011;6149;52.418;13.668;2023-09-18T08:25:39;6.23;;;5.63;;
12171;SDS011;6149;52.418;13.668;2023-09-18T08:28:07;6.43;;;5.80;;
12171;SDS011;6149;52.418;13.668;2023-09-18T08:30:48;7.77;;;5.80;;
12171;SDS011;6149;52.418;13.668;2023-09-18T08:33:14;6.00;;;5.50;;
12171;SDS011;6149;52.418;13.668;2023-09-18T08:35:41;6.33;;;5.70;;
12171;SDS011;6149;52.418;13.668;2023-09-18T08:38:10;6.53;;;5.93;;
12171;SDS011;6149;52.418;13.668;2023-09-18T08:40:41;6.07;;;5.53;;
12171;SDS011;6149;52.418;13.668;2023-09-18T08:43:10;7.93;;;5.67;;
12171;SDS011;6149;52.418;13.668;2023-09-18T08:45:54;6.57;;;6.07;;
12171;SDS011;6149;52.418;13.668;2023-09-18T08:48:29;5.67;;;5.27;;
12171;SDS011;6149;52.418;13.668;2023-09-18T08:51:01;6.03;;;5.53;;
12171;SDS011;6149;52.418;13.668;2023-09-18T08:53:34;5.40;;;5.00;;
12171;SDS011;6149;52.418;13.668;2023-09-18T08:56:12;5.30;;;4.80;;
12171;SDS011;6149;52.418;13.668;2023-09-18T08:58:41;5.63;;;5.23;;
12171;SDS011;6149;52.418;13.668;2023-09-18T09:01:12;5.47;;;5.07;;
12171;SDS011;6149;52.418;13.668;2023-09-18T09:03:42;5.20;;;4.80;;
12171;SDS011;6149;52.418;13.668;2023-09-18T09:06:11;5.17;;;4.77;;
12171;SDS011;6149;52.418;13.668;2023-09-18T09:08:39;4.97;;;4.57;;
12171;SDS011;6149;52.418;13.668;2023-09-18T09:11:09;5.50;;;5.00;;
12171;SDS011;6149;52.418;13.668;2023-09-18T09:13:38;5.50;;;5.00;;
12171;SDS011;6149;52.418;13.668;2023-09-18T09:16:10;5.77;;;5.23;;
12171;SDS011;6149;52.418;13.668;2023-09-18T09:18:50;5.57;;;4.63;;
12171;SDS011;6149;52.418;13.668;2023-09-18T09:21:18;5.37;;;4.70;;
12171;SDS011;6149;52.418;13.668;2023-09-18T09:23:46;5.00;;;4.60;;
12171;SDS011;6149;52.418;13.668;2023-09-18T09:26:18;5.43;;;4.67;;
12171;SDS011;6149;52.418;13.668;2023-09-18T09:28:47;7.03;;;4.73;;
12171;SDS011;6149;52.418;13.668;2023-09-18T09:31:27;5.10;;;4.50;;
12171;SDS011;6149;52.418;13.668;2023-09-18T09:33:58;4.67;;;4.37;;
12171;SDS011;6149;52.418;13.668;2023-09-18T09:36:28;5.27;;;4.73;;
12171;SDS011;6149;52.418;13.668;2023-09-18T09:38:59;5.20;;;4.80;;
12171;SDS011;6149;52.418;13.668;2023-09-18T09:41:31;4.83;;;4.43;;
12171;SDS011;6149;52.418;13.668;2023-09-18T09:44:01;5.30;;;4.90;;
12171;SDS011;6149;52.418;13.668;2023-09-18T09:46:36;6.43;;;5.00;;
12171;SDS011;6149;52.418;13.668;2023-09-18T09:49:12;5.23;;;4.60;;
12171;SDS011;6149;52.418;13.668;2023-09-18T09:51:42;5.30;;;4.80;;
12171;SDS011;6149;52.418;13.668;2023-09-18T09:54:10;5.27;;;4.80;;
12171;SDS011;6149;52.418;13.668;2023-09-18T09:56:42;4.93;;;4.53;;
12171;SDS011;6149;52.418;13.668;2023-09-18T09:59:14;4.93;;;4.50;;
12171;SDS011;6149;52.418;13.668;2023-09-18T10:01:47;4.97;;;4.57;;
12171;SDS011;6149;52.418;13.668;2023-09-18T10:04:17;5.17;;;4.63;;
12171;SDS011;6149;52.418;13.668;2023-09-18T10:06:47;4.87;;;4.50;;
12171;SDS011;6149;52.418;13.668;2023-09-18T10:09:19;5.57;;;5.17;;
12171;SDS011;6149;52.418;13.668;2023-09-18T10:11:49;6.67;;;5.10;;
12171;SDS011;6149;52.418;13.668;2023-09-18T10:14:20;5.43;;;5.03;;
12171;SDS011;6149;52.418;13.668;2023-09-18T10:17:15;4.83;;;4.43;;
12171;SDS011;6149;52.418;13.668;2023-09-18T10:19:48;6.40;;;4.67;;
12171;SDS011;6149;52.418;13.668;2023-09-18T10:22:21;5.43;;;4.93;;
12171;SDS011;6149;52.418;13.668;2023-09-18T10:25:04;5.33;;;4.83;;
12171;SDS011;6149;52.418;13.668;2023-09-18T10:27:42;5.33;;;4.93;;
12171;SDS011;6149;52.418;13.668;2023-09-18T10:30:15;5.03;;;4.63;;
12171;SDS011;6149;52.418;13.668;2023-09-18T10:32:47;5.40;;;4.73;;
12171;SDS011;6149;52.418;13.668;2023-09-18T10:35:14;5.37;;;4.83;;
12171;SDS011;6149;52.418;13.668;2023-09-18T10:37:45;5.43;;;4.93;;
12171;SDS011;6149;52.418;13.668;2023-09-18T10:40:17;6.27;;;5.47;;
12171;SDS011;6149;52.418;13.668;2023-09-18T10:42:46;5.23;;;4.73;;
12171;SDS011;6149;52.418;13.668;2023-09-18T10:45:16;5.00;;;4.60;;
12171;SDS011;6149;52.418;13.668;2023-09-18T10:47:43;5.13;;;4.63;;
12171;SDS011;6149;52.418;13.668;2023-09-18T10:50:24;5.30;;;4.80;;
12171;SDS011;6149;52.418;13.668;2023-09-18T10:52:51;5.43;;;4.53;;
12171;SDS011;6149;52.418;13.668;2023-09-18T10:55:19;6.37;;;5.17;;
12171;SDS011;6149;52.418;13.668;2023-09-18T10:57:53;5.63;;;5.00;;
12171;SDS011;6149;52.418;13.668;2023-09-18T11:00:24;5.17;;;4.77;;
12171;SDS011;6149;52.418;13.668;2023-09-18T11:03:10;5.60;;;5.00;;
12171;SDS011;6149;52.418;13.668;2023-09-18T11:05:44;5.00;;;4.60;;
12171;SDS011;6149;52.418;13.668;2023-09-18T11:08:25;6.20;;;4.80;;
12171;SDS011;6149;52.418;13.668;2023-09-18T11:11:03;5.27;;;4.87;;
12171;SDS011;6149;52.418;13.668;2023-09-18T11:13:41;8.37;;;5.40;;
12171;SDS011;6149;52.418;13.668;2023-09-18T11:16:33;5.83;;;5.23;;
12171;SDS011;6149;52.418;13.668;2023-09-18T11:19:09;5.80;;;5.20;;
12171;SDS011;6149;52.418;13.668;2023-09-18T11:21:41;6.83;;;5.53;;
12171;SDS011;6149;52.418;13.668;2023-09-18T11:24:15;5.53;;;5.03;;
12171;SDS011;6149;52.418;13.668;2023-09-18T11:26:44;8.23;;;4.80;;
12171;SDS011;6149;52.418;13.668;2023-09-18T11:29:15;6.10;;;4.77;;
12171;SDS011;6149;52.418;13.668;2023-09-18T11:31:48;5.73;;;5.30;;
12171;SDS011;6149;52.418;13.668;2023-09-18T11:34:24;5.23;;;4.80;;
12171;SDS011;6149;52.418;13.668;2023-09-18T11:36:57;6.97;;;5.23;;
12171;SDS011;6149;52.418;13.668;2023-09-18T11:39:32;6.17;;;5.57;;
12171;SDS011;6149;52.418;13.668;2023-09-18T11:42:12;5.40;;;4.90;;
12171;SDS011;6149;52.418;13.668;2023-09-18T11:44:47;6.27;;;5.27;;
12171;SDS011;6149;52.418;13.668;2023-09-18T11:47:17;6.93;;;5.57;;
12171;SDS011;6149;52.418;13.668;2023-09-18T11:49:50;5.60;;;5.10;;
12171;SDS011;6149;52.418;13.668;2023-09-18T11:52:22;5.47;;;4.97;;
12171;SDS011;6149;52.418;13.668;2023-09-18T11:54:55;5.80;;;5.27;;
12171;SDS011;6149;52.418;13.668;2023-09-18T11:57:25;5.73;;;5.23;;
12171;SDS011;6149;52.418;13.668;2023-09-18T11:59:53;5.60;;;5.20;;
12171;SDS011;6149;52.418;13.668;2023-09-18T12:02:26;5.93;;;5.43;;
12171;SDS011;6149;52.418;13.668;2023-09-18T12:05:09;8.10;;;5.23;;
12171;SDS011;6149;52.418;13.668;2023-09-18T12:07:39;6.97;;;5.13;;
12171;SDS011;6149;52.418;13.668;2023-09-18T12:10:09;6.87;;;5.50;;
12171;SDS011;6149;52.418;13.668;2023-09-18T12:12:37;6.63;;;5.30;;
12171;SDS011;6149;52.418;13.668;2023-09-18T12:15:11;5.70;;;5.20;;
12171;SDS011;6149;52.418;13.668;2023-09-18T12:17:39;6.80;;;5.33;;
12171;SDS011;6149;52.418;13.668;2023-09-18T12:20:19;5.57;;;5.07;;
12171;SDS011;6149;52.418;13.668;2023-09-18T12:22:47;6.37;;;5.37;;
12171;SDS011;6149;52.418;13.668;2023-09-18T12:25:17;5.93;;;5.43;;
12171;SDS011;6149;52.418;13.668;2023-09-18T12:27:46;5.60;;;4.80;;
12171;SDS011;6149;52.418;13.668;2023-09-18T12:30:19;5.90;;;5.27;;
12171;SDS011;6149;52.418;13.668;2023-09-18T12:32:47;5.63;;;4.97;;
12171;SDS011;6149;52.418;13.668;2023-09-18T12:35:18;5.40;;;5.00;;
12171;SDS011;6149;52.418;13.668;2023-09-18T12:37:45;6.67;;;5.57;;
12171;SDS011;6149;52.418;13.668;2023-09-18T12:40:26;5.83;;;5.30;;
12171;SDS011;6149;52.418;13.668;2023-09-18T12:43:03;8.00;;;5.73;;
12171;SDS011;6149;52.418;13.668;2023-09-18T12:45:36;5.53;;;5.03;;
12171;SDS011;6149;52.418;13.668;2023-09-18T12:48:06;5.90;;;5.13;;
12171;SDS011;6149;52.418;13.668;2023-09-18T12:50:53;5.70;;;5.20;;
12171;SDS011;6149;52.418;13.668;2023-09-18T12:53:22;5.77;;;5.17;;
12171;SDS011;6149;52.418;13.668;2023-09-18T12:55:51;5.33;;;4.93;;
12171;SDS011;6149;52.418;13.668;2023-09-18T12:58:18;5.43;;;4.87;;
12171;SDS011;6149;52.418;13.668;2023-09-18T13:00:47;6.33;;;4.97;;
12171;SDS011;6149;52.418;13.668;2023-09-18T13:03:17;6.27;;;4.87;;
12171;SDS011;6149;52.418;13.668;2023-09-18T13:05:51;6.97;;;5.30;;
12171;SDS011;6149;52.418;13.668;2023-09-18T13:08:21;5.97;;;5.37;;
12171;SDS011;6149;52.418;13.668;2023-09-18T13:10:49;5.37;;;4.87;;
12171;SDS011;6149;52.418;13.668;2023-09-18T13:13:16;5.50;;;5.10;;
12171;SDS011;6149;52.418;13.668;2023-09-18T13:15:45;5.30;;;4.90;;
12171;SDS011;6149;52.418;13.668;2023-09-18T13:18:14;6.67;;;4.87;;
12171;SDS011;6149;52.418;13.668;2023-09-18T13:20:42;5.73;;;5.10;;
12171;SDS011;6149;52.418;13.668;2023-09-18T13:23:12;5.30;;;4.80;;
12171;SDS011;6149;52.418;13.668;2023-09-18T13:25:40;5.83;;;5.23;;
12171;SDS011;6149;52.418;13.668;2023-09-18T13:28:11;5.87;;;5.37;;
12171;SDS011;6149;52.418;13.668;2023-09-18T13:30:41;6.00;;;5.40;;
12171;SDS011;6149;52.418;13.668;2023-09-18T13:33:09;6.13;;;5.13;;
12171;SDS011;6149;52.418;13.668;2023-09-18T13:35:39;7.60;;;5.53;;
12171;SDS011;6149;52.418;13.668;2023-09-18T13:38:09;5.90;;;5.40;;
12171;SDS011;6149;52.418;13.668;2023-09-18T13:40:42;6.33;;;5.20;;
12171;SDS011;6149;52.418;13.668;2023-09-18T13:43:14;6.87;;;5.30;;
12171;SDS011;6149;52.418;13.668;2023-09-18T13:45:42;5.60;;;5.03;;
12171;SDS011;6149;52.418;13.668;2023-09-18T13:48:09;5.67;;;4.83;;
12171;SDS011;6149;52.418;13.668;2023-09-18T13:50:36;6.50;;;5.07;;
12171;SDS011;6149;52.418;13.668;2023-09-18T13:53:05;4.87;;;4.47;;
12171;SDS011;6149;52.418;13.668;2023-09-18T13:55:36;6.80;;;5.03;;
12171;SDS011;6149;52.418;13.668;2023-09-18T13:58:10;8.47;;;5.40;;
12171;SDS011;6149;52.418;13.668;2023-09-18T14:00:38;6.90;;;4.80;;
12171;SDS011;6149;52.418;13.668;2023-09-18T14:03:07;6.63;;;5.27;;
12171;SDS011;6149;52.418;13.668;2023-09-18T14:05:42;7.43;;;5.27;;
12171;SDS011;6149;52.418;13.668;2023-09-18T14:08:10;6.63;;;5.40;;
12171;SDS011;6149;52.418;13.668;2023-09-18T14:10:36;6.33;;;5.60;;
12171;SDS011;6149;52.418;13.668;2023-09-18T14:13:10;6.43;;;5.83;;
12171;SDS011;6149;52.418;13.668;2023-09-18T14:15:39;8.13;;;6.20;;
12171;SDS011;6149;52.418;13.668;2023-09-18T14:18:08;6.33;;;5.70;;
12171;SDS011;6149;52.418;13.668;2023-09-18T14:20:36;7.73;;;5.80;;
12171;SDS011;6149;52.418;13.668;2023-09-18T14:23:06;5.50;;;5.00;;
12171;SDS011;6149;52.418;13.668;2023-09-18T14:25:36;6.20;;;5.70;;
12171;SDS011;6149;52.418;13.668;2023-09-18T14:28:18;7.50;;;5.40;;
12171;SDS011;6149;52.418;13.668;2023-09-18T14:30:45;9.57;;;5.13;;
12171;SDS011;6149;52.418;13.668;2023-09-18T14:33:15;6.37;;;4.93;;
12171;SDS011;6149;52.418;13.668;2023-09-18T14:35:44;6.67;;;5.20;;
12171;SDS011;6149;52.418;13.668;2023-09-18T14:38:10;7.83;;;4.80;;
12171;SDS011;6149;52.418;13.668;2023-09-18T14:40:41;9.63;;;5.50;;
12171;SDS011;6149;52.418;13.668;2023-09-18T14:43:09;9.90;;;5.63;;
12171;SDS011;6149;52.418;13.668;2023-09-18T14:45:40;6.27;;;4.77;;
12171;SDS011;6149;52.418;13.668;2023-09-18T14:48:08;7.00;;;5.33;;
12171;SDS011;6149;52.418;13.668;2023-09-18T14:50:37;6.70;;;5.20;;
12171;SDS011;6149;52.418;13.668;2023-09-18T14:53:07;6.87;;;4.83;;
12171;SDS011;6149;52.418;13.668;2023-09-18T14:55:36;8.50;;;5.20;;
12171;SDS011;6149;52.418;13.668;2023-09-18T14:58:13;7.50;;;5.00;;
12171;SDS011;6149;52.418;13.668;2023-09-18T15:00:44;8.83;;;4.70;;
12171;SDS011;6149;52.418;13.668;2023-09-18T15:03:12;10.10;;;4.70;;